sensor_id;sensor_type;location;lat;lon;timestamp;pressure;altitude;pressure_sealevel;temperature;humidity
22255;BME280;11296;42.684;23.322;2022-08-07T00:01:54;94917.19;;;24.53;100.00
22255;BME280;11296;42.684;23.322;2022-08-07T00:04:21;94958.97;;;24.83;100.00
22255;BME280;11296;42.684;23.322;2022-08-07T00:06:47;94926.50;;;24.57;100.00
22255;BME280;11296;42.684;23.322;2022-08-07T00:09:12;94943.88;;;24.43;100.00
22255;BME280;11296;42.684;23.322;2022-08-07T00:11:38;94929.38;;;24.17;100.00
22255;BME280;11296;42.684;23.322;2022-08-07T00:14:04;94931.44;;;24.09;100.00
22255;BME280;11296;42.684;23.322;2022-08-07T00:16:30;94922.88;;;24.05;100.00
22255;BME280;11296;42.684;23.322;2022-08-07T00:18:55;94940.00;;;24.21;100.00
22255;BME280;11296;42.684;23.322;2022-08-07T00:21:21;94942.63;;;24.11;100.00
22255;BME280;11296;42.684;23.322;2022-08-07T00:23:46;94957.66;;;24.35;100.00
22255;BME280;11296;42.684;23.322;2022-08-07T00:26:12;94946.56;;;24.25;100.00
22255;BME280;11296;42.684;23.322;2022-08-07T00:28:38;94919.56;;;24.07;100.00
22255;BME280;11296;42.684;23.322;2022-08-07T00:31:07;94954.28;;;24.19;100.00
22255;BME280;11296;42.684;23.322;2022-08-07T00:33:34;94938.13;;;23.91;100.00
22255;BME280;11296;42.684;23.322;2022-08-07T00:36:01;94958.94;;;24.02;100.00
22255;BME280;11296;42.684;23.322;2022-08-07T00:38:27;94955.50;;;23.94;100.00
22255;BME280;11296;42.684;23.322;2022-08-07T00:40:52;94909.34;;;23.60;100.00
22255;BME280;11296;42.684;23.322;2022-08-07T00:43:18;94927.81;;;23.67;100.00
22255;BME280;11296;42.684;23.322;2022-08-07T00:45:43;94962.81;;;23.99;100.00
22255;BME280;11296;42.684;23.322;2022-08-07T00:48:11;94968.09;;;24.12;100.00
22255;BME280;11296;42.684;23.322;2022-08-07T00:50:38;94928.16;;;23.71;100.00
22255;BME280;11296;42.684;23.322;2022-08-07T00:53:04;94934.75;;;23.68;100.00
22255;BME280;11296;42.684;23.322;2022-08-07T00:55:29;94952.34;;;23.65;100.00
22255;BME280;11296;42.684;23.322;2022-08-07T00:57:55;94939.94;;;23.56;100.00
22255;BME280;11296;42.684;23.322;2022-08-07T01:00:21;94925.47;;;23.56;100.00
22255;BME280;11296;42.684;23.322;2022-08-07T01:02:47;94913.63;;;23.46;100.00
22255;BME280;11296;42.684;23.322;2022-08-07T01:05:13;94946.91;;;23.50;100.00
22255;BME280;11296;42.684;23.322;2022-08-07T01:07:43;94911.63;;;23.31;100.00
22255;BME280;11296;42.684;23.322;2022-08-07T01:10:09;94932.25;;;23.55;100.00
22255;BME280;11296;42.684;23.322;2022-08-07T01:12:36;94934.47;;;23.49;100.00
22255;BME280;11296;42.684;23.322;2022-08-07T01:15:06;94934.63;;;23.51;100.00
22255;BME280;11296;42.684;23.322;2022-08-07T01:17:35;94946.13;;;23.65;100.00
22255;BME280;11296;42.684;23.322;2022-08-07T01:20:10;94933.72;;;23.56;100.00
22255;BME280;11296;42.684;23.322;2022-08-07T01:22:37;94945.66;;;23.43;100.00
22255;BME280;11296;42.684;23.322;2022-08-07T01:25:04;94953.16;;;23.43;100.00
22255;BME280;11296;42.684;23.322;2022-08-07T01:27:31;94939.81;;;23.24;100.00
22255;BME280;11296;42.684;23.322;2022-08-07T01:29:58;94944.78;;;23.26;100.00
22255;BME280;11296;42.684;23.322;2022-08-07T01:32:24;94955.91;;;23.35;100.00
22255;BME280;11296;42.684;23.322;2022-08-07T01:34:52;94947.16;;;23.07;100.00
22255;BME280;11296;42.684;23.322;2022-08-07T01:37:20;94993.25;;;23.38;100.00
22255;BME280;11296;42.684;23.322;2022-08-07T01:39:50;94945.56;;;23.04;100.00
22255;BME280;11296;42.684;23.322;2022-08-07T01:42:25;94947.56;;;23.03;100.00
22255;BME280;11296;42.684;23.322;2022-08-07T01:44:53;94967.47;;;23.26;100.00
22255;BME280;11296;42.684;23.322;2022-08-07T01:47:20;94984.84;;;23.44;100.00
22255;BME280;11296;42.684;23.322;2022-08-07T01:49:49;94990.50;;;23.38;100.00
22255;BME280;11296;42.684;23.322;2022-08-07T01:52:17;95002.94;;;23.32;100.00
22255;BME280;11296;42.684;23.322;2022-08-07T01:54:48;95033.44;;;23.66;100.00
22255;BME280;11296;42.684;23.322;2022-08-07T01:57:24;95055.63;;;23.53;100.00
22255;BME280;11296;42.684;23.322;2022-08-07T02:05:12;95068.81;;;23.24;100.00
22255;BME280;11296;42.684;23.322;2022-08-07T02:07:50;95016.50;;;22.84;100.00
22255;BME280;11296;42.684;23.322;2022-08-07T02:10:33;95084.41;;;23.37;100.00
22255;BME280;11296;42.684;23.322;2022-08-07T02:15:38;95078.00;;;23.34;100.00
22255;BME280;11296;42.684;23.322;2022-08-07T02:18:05;95057.13;;;23.09;100.00
22255;BME280;11296;42.684;23.322;2022-08-07T02:20:35;95044.69;;;22.93;100.00
22255;BME280;11296;42.684;23.322;2022-08-07T02:23:04;95043.97;;;23.00;100.00
22255;BME280;11296;42.684;23.322;2022-08-07T02:25:33;95066.06;;;23.09;100.00
22255;BME280;11296;42.684;23.322;2022-08-07T02:28:01;95067.34;;;22.78;100.00
22255;BME280;11296;42.684;23.322;2022-08-07T02:30:28;95004.22;;;22.40;100.00
22255;BME280;11296;42.684;23.322;2022-08-07T02:32:55;95029.22;;;22.29;100.00
22255;BME280;11296;42.684;23.322;2022-08-07T02:35:23;95028.59;;;22.08;100.00
22255;BME280;11296;42.684;23.322;2022-08-07T02:37:55;95021.03;;;21.86;100.00
22255;BME280;11296;42.684;23.322;2022-08-07T02:40:22;95018.03;;;21.69;100.00
22255;BME280;11296;42.684;23.322;2022-08-07T02:42:48;95002.66;;;21.58;100.00
22255;BME280;11296;42.684;23.322;2022-08-07T02:45:16;94964.06;;;21.41;100.00
22255;BME280;11296;42.684;23.322;2022-08-07T02:47:44;94979.31;;;21.65;100.00
22255;BME280;11296;42.684;23.322;2022-08-07T02:50:13;95033.53;;;22.02;100.00
22255;BME280;11296;42.684;23.322;2022-08-07T02:55:13;94992.22;;;21.85;100.00
22255;BME280;11296;42.684;23.322;2022-08-07T02:57:41;95018.91;;;21.99;100.00
22255;BME280;11296;42.684;23.322;2022-08-07T03:00:10;95020.72;;;21.97;100.00
22255;BME280;11296;42.684;23.322;2022-08-07T03:02:39;94997.72;;;22.00;100.00
22255;BME280;11296;42.684;23.322;2022-08-07T03:05:07;94987.69;;;22.02;100.00
22255;BME280;11296;42.684;23.322;2022-08-07T03:07:35;94958.50;;;22.05;100.00
22255;BME280;11296;42.684;23.322;2022-08-07T03:10:02;94967.06;;;22.09;100.00
22255;BME280;11296;42.684;23.322;2022-08-07T03:12:31;94985.75;;;22.33;100.00
22255;BME280;11296;42.684;23.322;2022-08-07T03:15:06;94985.56;;;22.39;100.00
22255;BME280;11296;42.684;23.322;2022-08-07T03:17:32;94938.03;;;22.13;100.00
22255;BME280;11296;42.684;23.322;2022-08-07T03:19:58;94993.63;;;22.44;100.00
22255;BME280;11296;42.684;23.322;2022-08-07T03:22:27;95030.03;;;22.60;100.00
22255;BME280;11296;42.684;23.322;2022-08-07T03:24:54;94978.03;;;22.09;100.00
22255;BME280;11296;42.684;23.322;2022-08-07T03:27:21;94988.66;;;22.20;100.00
22255;BME280;11296;42.684;23.322;2022-08-07T03:29:50;95032.00;;;22.52;100.00
22255;BME280;11296;42.684;23.322;2022-08-07T03:32:22;95001.09;;;22.36;100.00
22255;BME280;11296;42.684;23.322;2022-08-07T03:34:52;94973.28;;;22.17;100.00
22255;BME280;11296;42.684;23.322;2022-08-07T03:37:20;94978.97;;;22.27;100.00
22255;BME280;11296;42.684;23.322;2022-08-07T03:39:46;94976.78;;;22.33;100.00
22255;BME280;11296;42.684;23.322;2022-08-07T03:42:15;94986.50;;;22.34;100.00
22255;BME280;11296;42.684;23.322;2022-08-07T03:44:42;94983.19;;;22.35;100.00
22255;BME280;11296;42.684;23.322;2022-08-07T03:47:12;95008.41;;;22.41;100.00
22255;BME280;11296;42.684;23.322;2022-08-07T03:49:38;94983.72;;;22.26;100.00
22255;BME280;11296;42.684;23.322;2022-08-07T03:52:06;95017.38;;;22.57;100.00
22255;BME280;11296;42.684;23.322;2022-08-07T03:54:34;95019.75;;;22.45;100.00
22255;BME280;11296;42.684;23.322;2022-08-07T03:57:03;95014.63;;;22.49;100.00
22255;BME280;11296;42.684;23.322;2022-08-07T03:59:30;95025.06;;;22.58;100.00
22255;BME280;11296;42.684;23.322;2022-08-07T04:01:57;95011.91;;;22.57;100.00
22255;BME280;11296;42.684;23.322;2022-08-07T04:04:25;95008.09;;;22.67;100.00
22255;BME280;11296;42.684;23.322;2022-08-07T04:06:56;95033.72;;;22.77;100.00
22255;BME280;11296;42.684;23.322;2022-08-07T04:09:23;95008.28;;;22.69;100.00
22255;BME280;11296;42.684;23.322;2022-08-07T04:11:54;95046.50;;;23.13;100.00
22255;BME280;11296;42.684;23.322;2022-08-07T04:14:21;94992.94;;;22.81;100.00
22255;BME280;11296;42.684;23.322;2022-08-07T04:16:49;94987.81;;;22.93;100.00
22255;BME280;11296;42.684;23.322;2022-08-07T04:19:15;95007.00;;;23.08;100.00
22255;BME280;11296;42.684;23.322;2022-08-07T04:21:48;95041.91;;;23.38;100.00
22255;BME280;11296;42.684;23.322;2022-08-07T04:24:14;95034.22;;;23.29;100.00
22255;BME280;11296;42.684;23.322;2022-08-07T04:26:40;95055.28;;;23.49;100.00
22255;BME280;11296;42.684;23.322;2022-08-07T04:29:07;95024.19;;;23.24;100.00
22255;BME280;11296;42.684;23.322;2022-08-07T04:31:37;95021.25;;;23.22;100.00
22255;BME280;11296;42.684;23.322;2022-08-07T04:34:06;95035.16;;;23.39;100.00
22255;BME280;11296;42.684;23.322;2022-08-07T04:36:33;95019.78;;;23.21;100.00
22255;BME280;11296;42.684;23.322;2022-08-07T04:39:01;95029.84;;;23.41;100.00
22255;BME280;11296;42.684;23.322;2022-08-07T04:41:27;95046.16;;;23.39;100.00
22255;BME280;11296;42.684;23.322;2022-08-07T04:43:54;95035.50;;;23.43;100.00
22255;BME280;11296;42.684;23.322;2022-08-07T04:55:02;95041.34;;;23.54;100.00
22255;BME280;11296;42.684;23.322;2022-08-07T04:57:48;95022.69;;;23.45;100.00
22255;BME280;11296;42.684;23.322;2022-08-07T05:00:20;95030.91;;;23.61;100.00
22255;BME280;11296;42.684;23.322;2022-08-07T05:03:17;95044.91;;;23.87;100.00
22255;BME280;11296;42.684;23.322;2022-08-07T05:08:41;95073.72;;;24.26;100.00
22255;BME280;11296;42.684;23.322;2022-08-07T05:11:12;95086.63;;;24.48;100.00
22255;BME280;11296;42.684;23.322;2022-08-07T05:14:07;95060.97;;;24.46;100.00
22255;BME280;11296;42.684;23.322;2022-08-07T05:16:37;95091.84;;;24.69;100.00
22255;BME280;11296;42.684;23.322;2022-08-07T05:19:11;95065.09;;;24.62;100.00
22255;BME280;11296;42.684;23.322;2022-08-07T05:21:43;95053.44;;;24.54;100.00
22255;BME280;11296;42.684;23.322;2022-08-07T05:24:14;95050.84;;;24.56;100.00
22255;BME280;11296;42.684;23.322;2022-08-07T05:26:46;95053.78;;;24.58;100.00
22255;BME280;11296;42.684;23.322;2022-08-07T05:29:14;95057.44;;;24.60;100.00
22255;BME280;11296;42.684;23.322;2022-08-07T05:31:42;95039.88;;;24.48;100.00
22255;BME280;11296;42.684;23.322;2022-08-07T05:34:14;95062.13;;;24.75;100.00
22255;BME280;11296;42.684;23.322;2022-08-07T05:36:46;95072.97;;;24.65;100.00
22255;BME280;11296;42.684;23.322;2022-08-07T05:39:23;95057.53;;;24.77;100.00
22255;BME280;11296;42.684;23.322;2022-08-07T05:42:13;95075.75;;;24.90;100.00
22255;BME280;11296;42.684;23.322;2022-08-07T05:44:57;95040.66;;;24.73;100.00
22255;BME280;11296;42.684;23.322;2022-08-07T05:47:24;95090.88;;;25.06;100.00
22255;BME280;11296;42.684;23.322;2022-08-07T05:49:51;95070.22;;;24.97;100.00
22255;BME280;11296;42.684;23.322;2022-08-07T05:52:20;95059.78;;;24.96;100.00
22255;BME280;11296;42.684;23.322;2022-08-07T05:54:51;95110.69;;;25.54;100.00
22255;BME280;11296;42.684;23.322;2022-08-07T05:57:17;95068.50;;;25.51;100.00
22255;BME280;11296;42.684;23.322;2022-08-07T05:59:45;95114.63;;;25.85;100.00
22255;BME280;11296;42.684;23.322;2022-08-07T06:02:13;95110.50;;;25.77;100.00
22255;BME280;11296;42.684;23.322;2022-08-07T06:04:46;95079.03;;;25.62;100.00
22255;BME280;11296;42.684;23.322;2022-08-07T06:07:18;95081.25;;;25.39;100.00
22255;BME280;11296;42.684;23.322;2022-08-07T06:09:45;95135.44;;;25.37;100.00
22255;BME280;11296;42.684;23.322;2022-08-07T06:12:13;95087.06;;;25.01;100.00
22255;BME280;11296;42.684;23.322;2022-08-07T06:14:40;95129.53;;;25.40;100.00
22255;BME280;11296;42.684;23.322;2022-08-07T06:17:06;95122.25;;;25.35;100.00
22255;BME280;11296;42.684;23.322;2022-08-07T06:19:39;95116.94;;;25.54;100.00
22255;BME280;11296;42.684;23.322;2022-08-07T06:22:06;95109.69;;;25.66;100.00
22255;BME280;11296;42.684;23.322;2022-08-07T06:24:32;95086.00;;;25.63;100.00
22255;BME280;11296;42.684;23.322;2022-08-07T06:26:58;95080.09;;;25.67;100.00
22255;BME280;11296;42.684;23.322;2022-08-07T06:29:27;95093.47;;;25.88;100.00
22255;BME280;11296;42.684;23.322;2022-08-07T06:31:54;95126.25;;;26.18;100.00
22255;BME280;11296;42.684;23.322;2022-08-07T06:34:24;95112.31;;;26.16;100.00
22255;BME280;11296;42.684;23.322;2022-08-07T06:36:55;95068.19;;;25.99;100.00
22255;BME280;11296;42.684;23.322;2022-08-07T06:39:26;95070.94;;;25.99;100.00
22255;BME280;11296;42.684;23.322;2022-08-07T06:42:14;95127.50;;;26.51;100.00
22255;BME280;11296;42.684;23.322;2022-08-07T06:45:10;95096.38;;;26.41;100.00
22255;BME280;11296;42.684;23.322;2022-08-07T06:47:40;95077.28;;;26.26;100.00
22255;BME280;11296;42.684;23.322;2022-08-07T06:50:08;95109.66;;;26.52;100.00
22255;BME280;11296;42.684;23.322;2022-08-07T06:52:41;95055.38;;;26.11;100.00
22255;BME280;11296;42.684;23.322;2022-08-07T06:55:18;95090.31;;;26.25;100.00
22255;BME280;11296;42.684;23.322;2022-08-07T06:57:46;95099.16;;;26.24;100.00
22255;BME280;11296;42.684;23.322;2022-08-07T07:00:15;95105.16;;;26.30;100.00
22255;BME280;11296;42.684;23.322;2022-08-07T07:02:44;95077.19;;;26.16;100.00
22255;BME280;11296;42.684;23.322;2022-08-07T07:05:11;95116.16;;;26.47;100.00
22255;BME280;11296;42.684;23.322;2022-08-07T07:07:39;95095.09;;;26.25;100.00
22255;BME280;11296;42.684;23.322;2022-08-07T07:10:06;95118.31;;;26.66;100.00
22255;BME280;11296;42.684;23.322;2022-08-07T07:12:44;95108.13;;;26.59;100.00
22255;BME280;11296;42.684;23.322;2022-08-07T07:15:16;95080.47;;;26.49;100.00
22255;BME280;11296;42.684;23.322;2022-08-07T07:18:02;95072.41;;;26.61;100.00
22255;BME280;11296;42.684;23.322;2022-08-07T07:20:34;95070.03;;;26.57;100.00
22255;BME280;11296;42.684;23.322;2022-08-07T07:23:00;95109.06;;;26.97;100.00
22255;BME280;11296;42.684;23.322;2022-08-07T07:25:28;95108.97;;;27.14;100.00
22255;BME280;11296;42.684;23.322;2022-08-07T07:28:19;95135.75;;;27.22;100.00
22255;BME280;11296;42.684;23.322;2022-08-07T07:31:07;95064.16;;;26.70;100.00
22255;BME280;11296;42.684;23.322;2022-08-07T07:33:37;95110.41;;;27.06;100.00
22255;BME280;11296;42.684;23.322;2022-08-07T07:36:04;95086.38;;;26.89;100.00
22255;BME280;11296;42.684;23.322;2022-08-07T07:38:32;95069.16;;;26.81;100.00
22255;BME280;11296;42.684;23.322;2022-08-07T07:41:05;95081.97;;;26.86;100.00
22255;BME280;11296;42.684;23.322;2022-08-07T07:43:32;95100.09;;;27.06;100.00
22255;BME280;11296;42.684;23.322;2022-08-07T07:46:03;95083.22;;;27.02;100.00
22255;BME280;11296;42.684;23.322;2022-08-07T07:48:30;95100.63;;;26.95;100.00
22255;BME280;11296;42.684;23.322;2022-08-07T07:51:00;95101.97;;;27.04;100.00
22255;BME280;11296;42.684;23.322;2022-08-07T07:53:28;95125.16;;;27.28;100.00
22255;BME280;11296;42.684;23.322;2022-08-07T07:55:58;95126.41;;;27.44;100.00
22255;BME280;11296;42.684;23.322;2022-08-07T07:58:33;95128.66;;;27.64;99.84
22255;BME280;11296;42.684;23.322;2022-08-07T08:01:03;95108.47;;;27.71;95.93
22255;BME280;11296;42.684;23.322;2022-08-07T08:03:30;95152.47;;;28.15;94.49
22255;BME280;11296;42.684;23.322;2022-08-07T08:05:57;95127.25;;;27.92;94.32
22255;BME280;11296;42.684;23.322;2022-08-07T08:08:26;95118.06;;;27.89;96.08
22255;BME280;11296;42.684;23.322;2022-08-07T08:10:53;95123.94;;;28.03;96.00
22255;BME280;11296;42.684;23.322;2022-08-07T08:13:20;95137.47;;;28.28;93.78
22255;BME280;11296;42.684;23.322;2022-08-07T08:15:48;95153.66;;;28.50;93.53
22255;BME280;11296;42.684;23.322;2022-08-07T08:18:14;95120.59;;;28.24;89.27
22255;BME280;11296;42.684;23.322;2022-08-07T08:20:41;95133.81;;;28.44;89.89
22255;BME280;11296;42.684;23.322;2022-08-07T08:23:09;95114.47;;;28.25;93.56
22255;BME280;11296;42.684;23.322;2022-08-07T08:25:55;95133.69;;;28.52;88.88
22255;BME280;11296;42.684;23.322;2022-08-07T08:28:43;95123.34;;;28.52;87.13
22255;BME280;11296;42.684;23.322;2022-08-07T08:31:13;95109.97;;;28.30;86.07
22255;BME280;11296;42.684;23.322;2022-08-07T08:33:44;95138.75;;;28.55;87.02
22255;BME280;11296;42.684;23.322;2022-08-07T08:36:12;95142.25;;;28.56;88.34
22255;BME280;11296;42.684;23.322;2022-08-07T08:38:42;95116.19;;;28.40;86.76
22255;BME280;11296;42.684;23.322;2022-08-07T08:41:45;95099.75;;;28.32;87.52
22255;BME280;11296;42.684;23.322;2022-08-07T08:44:39;95124.81;;;28.25;85.50
22255;BME280;11296;42.684;23.322;2022-08-07T08:47:16;95107.78;;;28.19;85.87
22255;BME280;11296;42.684;23.322;2022-08-07T08:52:35;95111.13;;;28.36;87.67
22255;BME280;11296;42.684;23.322;2022-08-07T08:55:12;95148.09;;;28.70;85.70
22255;BME280;11296;42.684;23.322;2022-08-07T08:57:49;95157.97;;;28.92;84.25
22255;BME280;11296;42.684;23.322;2022-08-07T09:00:17;95106.09;;;28.83;80.91
22255;BME280;11296;42.684;23.322;2022-08-07T09:02:59;95150.13;;;29.38;79.92
22255;BME280;11296;42.684;23.322;2022-08-07T09:05:46;95152.16;;;29.68;80.74
22255;BME280;11296;42.684;23.322;2022-08-07T09:08:45;95118.75;;;29.66;79.88
22255;BME280;11296;42.684;23.322;2022-08-07T09:11:45;95147.84;;;29.86;78.83
22255;BME280;11296;42.684;23.322;2022-08-07T09:17:20;95137.81;;;29.81;81.55
22255;BME280;11296;42.684;23.322;2022-08-07T09:19:58;95113.91;;;29.76;76.82
22255;BME280;11296;42.684;23.322;2022-08-07T09:22:50;95128.50;;;29.98;76.96
22255;BME280;11296;42.684;23.322;2022-08-07T09:28:02;95119.47;;;30.30;75.74
22255;BME280;11296;42.684;23.322;2022-08-07T09:30:54;95123.09;;;30.54;71.26
22255;BME280;11296;42.684;23.322;2022-08-07T09:33:26;95107.47;;;30.16;70.55
22255;BME280;11296;42.684;23.322;2022-08-07T09:42:06;95122.25;;;30.51;68.86
22255;BME280;11296;42.684;23.322;2022-08-07T09:52:51;95108.63;;;30.55;66.47
22255;BME280;11296;42.684;23.322;2022-08-07T09:58:42;95111.00;;;30.82;64.82
22255;BME280;11296;42.684;23.322;2022-08-07T10:03:59;95098.75;;;31.08;62.80
22255;BME280;11296;42.684;23.322;2022-08-07T10:15:36;95096.09;;;31.57;60.29
22255;BME280;11296;42.684;23.322;2022-08-07T10:23:45;95080.63;;;31.30;59.68
22255;BME280;11296;42.684;23.322;2022-08-07T10:26:47;95078.91;;;31.72;58.06
22255;BME280;11296;42.684;23.322;2022-08-07T10:35:11;95094.84;;;31.13;59.24
22255;BME280;11296;42.684;23.322;2022-08-07T10:41:18;95077.28;;;30.32;61.90
22255;BME280;11296;42.684;23.322;2022-08-07T10:44:01;95043.75;;;29.85;65.65
22255;BME280;11296;42.684;23.322;2022-08-07T10:46:38;95093.59;;;30.16;65.72
22255;BME280;11296;42.684;23.322;2022-08-07T10:51:54;95044.31;;;29.20;68.55
22255;BME280;11296;42.684;23.322;2022-08-07T10:54:40;95098.75;;;29.37;70.26
22255;BME280;11296;42.684;23.322;2022-08-07T10:57:13;95105.66;;;29.36;71.07
22255;BME280;11296;42.684;23.322;2022-08-07T11:08:31;95098.13;;;29.48;73.11
22255;BME280;11296;42.684;23.322;2022-08-07T11:11:14;95084.50;;;29.31;72.33
22255;BME280;11296;42.684;23.322;2022-08-07T11:13:53;95066.94;;;29.48;70.68
22255;BME280;11296;42.684;23.322;2022-08-07T11:16:51;95069.53;;;29.76;70.54
22255;BME280;11296;42.684;23.322;2022-08-07T11:25:33;95070.81;;;30.50;66.76
22255;BME280;11296;42.684;23.322;2022-08-07T11:28:15;95057.69;;;30.30;66.50
22255;BME280;11296;42.684;23.322;2022-08-07T11:30:50;95066.31;;;29.70;65.65
22255;BME280;11296;42.684;23.322;2022-08-07T11:33:45;95101.56;;;30.43;66.95
22255;BME280;11296;42.684;23.322;2022-08-07T11:42:08;95082.22;;;30.00;73.80
22255;BME280;11296;42.684;23.322;2022-08-07T11:44:57;95104.13;;;29.75;76.54
22255;BME280;11296;42.684;23.322;2022-08-07T11:47:49;95104.31;;;29.37;78.66
22255;BME280;11296;42.684;23.322;2022-08-07T11:53:33;95099.47;;;29.68;79.12
22255;BME280;11296;42.684;23.322;2022-08-07T11:56:32;95075.06;;;29.24;78.71
22255;BME280;11296;42.684;23.322;2022-08-07T11:59:36;95076.91;;;29.62;78.35
22255;BME280;11296;42.684;23.322;2022-08-07T12:05:27;95042.81;;;29.50;78.65
22255;BME280;11296;42.684;23.322;2022-08-07T12:08:28;95068.22;;;29.77;77.16
22255;BME280;11296;42.684;23.322;2022-08-07T12:11:14;95070.84;;;29.96;75.76
22255;BME280;11296;42.684;23.322;2022-08-07T12:13:57;95106.75;;;30.16;77.24
22255;BME280;11296;42.684;23.322;2022-08-07T12:16:27;95114.63;;;29.98;77.59
22255;BME280;11296;42.684;23.322;2022-08-07T12:22:04;95103.13;;;29.92;73.66
22255;BME280;11296;42.684;23.322;2022-08-07T12:27:38;95098.38;;;30.04;76.50
22255;BME280;11296;42.684;23.322;2022-08-07T12:30:06;95080.91;;;30.34;76.49
22255;BME280;11296;42.684;23.322;2022-08-07T12:33:02;95095.28;;;30.75;73.57
22255;BME280;11296;42.684;23.322;2022-08-07T12:35:32;95091.91;;;29.90;76.20
22255;BME280;11296;42.684;23.322;2022-08-07T12:37:59;95078.22;;;30.57;74.87
22255;BME280;11296;42.684;23.322;2022-08-07T12:40:29;95080.06;;;30.76;75.01
22255;BME280;11296;42.684;23.322;2022-08-07T12:42:58;95056.03;;;30.81;72.34
22255;BME280;11296;42.684;23.322;2022-08-07T12:45:27;95056.19;;;30.94;69.84
22255;BME280;11296;42.684;23.322;2022-08-07T12:48:23;95080.41;;;32.35;66.43
22255;BME280;11296;42.684;23.322;2022-08-07T12:51:09;95062.84;;;33.35;55.46
22255;BME280;11296;42.684;23.322;2022-08-07T12:53:54;95076.47;;;33.29;55.08
22255;BME280;11296;42.684;23.322;2022-08-07T12:56:43;95073.88;;;33.06;54.85
22255;BME280;11296;42.684;23.322;2022-08-07T12:59:14;95068.81;;;33.43;53.81
22255;BME280;11296;42.684;23.322;2022-08-07T13:01:57;95063.53;;;33.90;53.30
22255;BME280;11296;42.684;23.322;2022-08-07T13:13:35;95049.25;;;38.02;39.08
22255;BME280;11296;42.684;23.322;2022-08-07T13:16:30;95058.38;;;37.81;37.36
22255;BME280;11296;42.684;23.322;2022-08-07T13:21:39;95053.34;;;37.58;37.66
22255;BME280;11296;42.684;23.322;2022-08-07T13:24:37;95050.31;;;38.34;37.08
22255;BME280;11296;42.684;23.322;2022-08-07T13:27:15;95050.25;;;38.11;35.87
22255;BME280;11296;42.684;23.322;2022-08-07T13:32:51;95052.41;;;37.32;35.98
22255;BME280;11296;42.684;23.322;2022-08-07T13:40:31;95038.09;;;37.82;35.81
22255;BME280;11296;42.684;23.322;2022-08-07T13:43:05;95057.06;;;37.05;37.31
22255;BME280;11296;42.684;23.322;2022-08-07T13:45:32;95055.31;;;37.95;36.77
22255;BME280;11296;42.684;23.322;2022-08-07T13:48:02;95058.72;;;37.91;36.92
22255;BME280;11296;42.684;23.322;2022-08-07T13:50:30;95041.75;;;37.48;36.76
22255;BME280;11296;42.684;23.322;2022-08-07T13:52:57;95040.84;;;35.81;39.08
22255;BME280;11296;42.684;23.322;2022-08-07T13:55:25;95040.78;;;34.98;41.01
22255;BME280;11296;42.684;23.322;2022-08-07T13:57:58;95043.66;;;35.32;39.48
22255;BME280;11296;42.684;23.322;2022-08-07T14:00:48;95040.63;;;34.20;40.22
22255;BME280;11296;42.684;23.322;2022-08-07T14:03:17;95024.25;;;32.77;41.78
22255;BME280;11296;42.684;23.322;2022-08-07T14:05:46;95032.50;;;31.99;44.78
22255;BME280;11296;42.684;23.322;2022-08-07T14:08:15;94994.63;;;31.58;45.86
22255;BME280;11296;42.684;23.322;2022-08-07T14:10:42;95000.13;;;31.32;43.83
22255;BME280;11296;42.684;23.322;2022-08-07T14:13:15;95026.53;;;31.68;44.22
22255;BME280;11296;42.684;23.322;2022-08-07T14:15:49;95024.56;;;32.69;43.64
22255;BME280;11296;42.684;23.322;2022-08-07T14:20:53;95033.50;;;33.34;43.30
22255;BME280;11296;42.684;23.322;2022-08-07T14:23:25;95004.22;;;33.76;43.25
22255;BME280;11296;42.684;23.322;2022-08-07T14:25:59;95002.47;;;34.41;41.62
22255;BME280;11296;42.684;23.322;2022-08-07T14:28:27;95015.22;;;33.04;44.17
22255;BME280;11296;42.684;23.322;2022-08-07T14:30:55;95034.97;;;32.69;45.85
22255;BME280;11296;42.684;23.322;2022-08-07T14:33:22;95023.41;;;31.62;48.08
22255;BME280;11296;42.684;23.322;2022-08-07T14:35:54;95014.38;;;31.38;50.69
22255;BME280;11296;42.684;23.322;2022-08-07T14:38:25;95044.22;;;31.38;52.77
22255;BME280;11296;42.684;23.322;2022-08-07T14:41:07;95048.22;;;31.23;53.09
22255;BME280;11296;42.684;23.322;2022-08-07T14:43:38;95048.94;;;31.47;54.14
22255;BME280;11296;42.684;23.322;2022-08-07T14:46:05;95037.06;;;31.70;53.96
22255;BME280;11296;42.684;23.322;2022-08-07T14:48:36;95027.59;;;31.75;53.62
22255;BME280;11296;42.684;23.322;2022-08-07T14:51:06;95017.31;;;32.64;51.93
22255;BME280;11296;42.684;23.322;2022-08-07T14:53:37;95010.28;;;33.02;50.89
22255;BME280;11296;42.684;23.322;2022-08-07T14:56:08;95030.81;;;33.36;50.38
22255;BME280;11296;42.684;23.322;2022-08-07T14:58:38;95031.75;;;33.00;51.03
22255;BME280;11296;42.684;23.322;2022-08-07T15:01:05;95036.06;;;33.16;51.42
22255;BME280;11296;42.684;23.322;2022-08-07T15:03:33;95015.25;;;32.40;52.04
22255;BME280;11296;42.684;23.322;2022-08-07T15:06:00;95056.41;;;32.16;54.18
22255;BME280;11296;42.684;23.322;2022-08-07T15:08:35;95032.41;;;31.86;56.35
22255;BME280;11296;42.684;23.322;2022-08-07T15:11:06;95030.09;;;31.94;56.57
22255;BME280;11296;42.684;23.322;2022-08-07T15:13:34;95032.28;;;31.84;55.50
22255;BME280;11296;42.684;23.322;2022-08-07T15:16:05;94993.22;;;31.82;55.60
22255;BME280;11296;42.684;23.322;2022-08-07T15:18:37;95008.25;;;32.77;54.21
22255;BME280;11296;42.684;23.322;2022-08-07T15:21:32;95029.94;;;34.30;49.20
22255;BME280;11296;42.684;23.322;2022-08-07T15:24:00;94994.06;;;35.65;45.01
22255;BME280;11296;42.684;23.322;2022-08-07T15:26:35;95006.72;;;36.90;42.34